Weather observations for the past three days for
Brookings, Brookings Municipal Airport
Imperial (Metric)
Date Time (cdt) Wind (mph) Vis. (mi.) Weather Sky Cond. Temperature (ºF) Relative Humidity Wind Chill (°F) Heat Index (°F) Pressure Precipitation (in)
Air Dwpt 6 hour altimeter (in) sea level (mb) 1 hr 3 hr 6 hr
Max. Min.
03 19:56 W 9 10.00 Fair CLR 62.1 30.9 31% 29.71 1007.1
03 18:56 W 12 10.00 Fair CLR 68 27 70 64.9 21% 29.72 1007.5
03 17:56 W 15 10.00 Fair CLR 69.1 27 21% 29.74 1008.1
03 16:56 W 16 10.00 Fair CLR 69.1 30 23% 29.75 1008.5
03 15:56 NW 10 G 20 10.00 Fair CLR 68 30 24% 29.78 1009.3
03 14:56 NW 10 G 21 10.00 Fair CLR 66.9 32 27% 29.81 1010.5
03 13:56 NW 17 G 23 10.00 Fair CLR 66 33.1 29% 29.82 1010.8
03 12:56 NW 17 G 25 10.00 Fair CLR 64.9 32 64.9 43 29% 29.85 1011.7
03 11:56 NW 21 G 26 10.00 Fair and Breezy CLR 64 35.1 34% 29.87 1012.1
03 10:56 NW 13 10.00 Fair CLR 62.1 37.9 41% 29.87 1012.4
03 09:56 N 14 10.00 Fair CLR 60.1 37.9 44% 29.88 1012.6
03 08:56 NW 10 10.00 Fair CLR 55.9 39.9 55% 29.87 1012.5
03 07:56 NW 10 10.00 Fair CLR 48.9 39 69% 45 29.86 1012.4
03 06:56 NW 3 10.00 Fair CLR 44.1 37 54 41 76% 29.84 1011.8
03 05:56 NW 6 10.00 Fair CLR 42.1 35.1 76% 39 29.82 1011.0
03 04:56 NW 9 10.00 Fair CLR 45 36 71% 41 29.81 1010.7
03 03:56 NW 8 10.00 Fair CLR 46.9 37 69% 44 29.79 1010.1
03 02:56 NW 9 10.00 Fair CLR 50 37 61% 47 29.79 1009.7
03 01:56 W 8 10.00 Fair CLR 51.1 37.9 61% 29.78 1009.3
03 00:56 W 7 10.00 Mostly Cloudy BKN120 53.1 39 66 53.1 59% 29.78 1009.3
02 23:56 W 10 10.00 Fair CLR 57 37 47% 29.78 1009.2
02 22:56 SW 8 10.00 A Few Clouds FEW120 55 35.1 47% 29.78 1009.3
02 21:56 S 10 10.00 Fair CLR 57.9 32 38% 29.78 1009.4
02 20:56 S 12 10.00 Mostly Cloudy BKN110 60.1 32 35% 29.78 1009.7
02 19:56 S 12 10.00 Fair CLR 64.9 30.9 28% 29.79 1010.2
02 18:56 SW 12 10.00 Fair CLR 66 26.1 68 62.1 22% 29.84 1011.8
02 17:56 SW 17 G 26 10.00 Partly Cloudy SCT120 66.9 26.1 21% 29.85 1012.4
02 16:56 SW 18 10.00 Partly Cloudy SCT110 66 28 24% 29.87 1013.1
02 15:56 SW 17 10.00 Partly Cloudy SCT095 64 27 25% 29.92 1014.7
02 14:56 SW 17 10.00 A Few Clouds FEW110 64.9 28.9 26% 29.94 1015.4
02 13:56 W 13 G 25 10.00 Fair CLR 64 32 30% 29.98 1016.7
02 12:56 W 18 G 26 10.00 Fair CLR 62.1 30.9 62.1 33.1 31% 30.01 1017.9
02 11:56 W 17 G 24 10.00 Fair CLR 60.1 30 32% 30.04 1018.9
02 10:56 W 15 10.00 Fair CLR 57.9 30.9 36% 30.05 1019.4
02 09:56 SW 10 10.00 Fair CLR 54 30 40% 30.07 1020.0
02 08:56 S 7 10.00 Fair CLR 46.9 30.9 54% 44 30.08 1020.6
02 07:56 S 8 10.00 Fair CLR 39 28 65% 34 30.09 1021.2
02 06:56 S 7 10.00 Fair CLR 33.1 25 36 32 72% 28 30.1 1021.5
02 05:56 S 3 10.00 Fair CLR 32 24.1 73% 30.1 1021.6
02 04:56 S 3 10.00 Fair CLR 34 24.1 67% 30.11 1021.9
02 03:56 SW 3 10.00 Fair CLR 33.1 25 72% 30.12 1022.1
02 02:56 Calm 10.00 Fair CLR 34 25 70% 30.12 1022.1
02 01:56 S 3 10.00 Fair CLR 35.1 25 67% 30.12 1022.3
02 00:56 Calm 10.00 Fair CLR 32 27 51.1 32 82% 30.13 1022.8
01 23:56 Calm 10.00 Fair CLR 36 28 73% 30.13 1022.8
01 22:56 Calm 10.00 Fair CLR 37.9 28 68% 30.14 1022.9
01 21:56 Calm 10.00 Fair CLR 43 26.1 51% 30.13 1022.4
01 20:56 Calm 10.00 Fair CLR 44.1 27 51% 30.11 1022.0
01 19:56 N 6 10.00 Fair CLR 48.9 25 39% 47 30.1 1021.7
01 18:56 N 8 10.00 Partly Cloudy SCT065 51.1 25 52 46 36% 30.09 1021.5
01 17:56 NE 13 10.00 Mostly Cloudy BKN065 51.1 24.1 35% 30.1 1021.5
01 16:56 N 9 10.00 A Few Clouds FEW065 51.1 24.1 35% 30.1 1021.5
01 15:56 N 12 G 17 10.00 A Few Clouds FEW060 50 24.1 36% 46 30.11 1021.7
01 14:56 N 12 10.00 Mostly Cloudy BKN055 50 26.1 39% 46 30.11 1022.0
01 13:56 N 12 G 17 10.00 Mostly Cloudy BKN049 48 26.1 42% 44 30.12 1022.1
01 12:56 N 14 G 21 10.00 A Few Clouds FEW045 46.9 27 46.9 28.9 46% 42 30.12 1022.1
01 11:56 N 14 G 18 10.00 Fair CLR 45 26.1 48% 39 30.13 1022.3
01 10:56 N 16 10.00 Fair CLR 42.1 25 51% 35 30.12 1022.3
01 09:56 N 17 G 22 10.00 Fair CLR 41 24.1 51% 33 30.13 1022.3
01 08:56 N 9 10.00 Fair CLR 37 27 67% 31 30.13 1022.5
01 07:56 N 8 10.00 Overcast OVC050 32 27 82% 25 30.12 1022.3
01 06:56 Calm 10.00 Fair CLR 28 25 39.9 27 88% 30.1 1022.0
01 05:56 NW 5 10.00 Fair CLR 28 25 88% 24 30.09 1021.3
01 04:56 NW 7 10.00 Fair CLR 30 27 88% 24 30.08 1021.0
01 03:56 N 6 10.00 A Few Clouds FEW048 30.9 27 85% 26 30.08 1020.9
01 02:56 N 7 10.00 Fair CLR 34 28 79% 29 30.07 1020.6
01 01:56 N 8 10.00 Fair CLR 36 28.9 76% 30 30.07 1020.6
01 00:56 N 8 10.00 Overcast OVC048 39.9 34 48 39 79% 35 30.07 1020.4
30 23:56 Vrbl 3 10.00 Overcast BKN036 OVC043 41 35.1 79% 30.06 1019.9
30 22:56 NE 8 10.00 Light Rain SCT039 BKN060 OVC080 42.1 35.1 76% 38 30.05 1019.8
30 21:56 SW 3 10.00 Overcast BKN060 OVC075 44.1 35.1 71% 30.03 1019.1
30 20:56 W 5 10.00 Overcast BKN070 OVC085 45 32 61% 43 30.02 1018.8
Date Time (cdt) Wind (mph) Vis. (mi.) Weather Sky Cond. Air Dwpt Max. Min. Relative Humidity Wind Chill (°F) Heat Index (°F) altimeter (in) sea level (mb) 1 hr 3 hr 6 hr
6 hour
Temperature (ºF) Pressure Precipitation (in)